KCVN/CVN METAR and TAF weather

Enter ICAO airport designator
Station Type Date Time Source
KCVN METAR 2019/09/20 19:56 UTC NOAA

KCVN 201956Z AUTO 19014G19KT 10SM CLR 26/17 A3001 RMK AO2 SLP122 T02560172


Station Type Date Time Source
KCVN Decoded METAR 2019/09/20 19:56 UTC NOAA

Clovis, Clovis Municipal Airport, NM, United States (KCVN) 34-26N 103-05W
Sep 20, 2019 - 03:56 PM EDT / 2019.09.20 1956 UTC
Wind: from the S (190 degrees) at 16 MPH (14 KT) gusting to 22 MPH (19 KT):0
Visibility: 10 mile(s):0
Sky conditions: clear
Temperature: 78.1 F (25.6 C)
Dew Point: 63.0 F (17.2 C)
Relative Humidity: 59%
Pressure (altimeter): 30.01 in. Hg (1016 hPa)
ob: KCVN 201956Z AUTO 19014G19KT 10SM CLR 26/17 A3001 RMK AO2 SLP122 T02560172
cycle: 20

Station Type Date Time Source
KCVN TAF UTC NOAA

Error!

Example: see airport list